Map

Track Data

SID SEASON NUMBER BASIN SUBBASIN NAME ISO_TIME NATURE LAT LON WMO_WIND WMO_PRES WMO_AGENCY TRACK_TYPE DIST2LAND LANDFALL IFLAG USA_AGENCY USA_ATCF_ID USA_LAT USA_LON USA_RECORD USA_STATUS USA_WIND USA_PRES USA_SSHS USA_R34_NE USA_R34_SE USA_R34_SW USA_R34_NW USA_R50_NE USA_R50_SE USA_R50_SW USA_R50_NW USA_R64_NE USA_R64_SE USA_R64_SW USA_R64_NW USA_POCI USA_ROCI USA_RMW USA_EYE TOKYO_LAT TOKYO_LON TOKYO_GRADE TOKYO_WIND TOKYO_PRES TOKYO_R50_DIR TOKYO_R50_LONG TOKYO_R50_SHORT TOKYO_R30_DIR TOKYO_R30_LONG TOKYO_R30_SHORT TOKYO_LAND CMA_LAT CMA_LON CMA_CAT CMA_WIND CMA_PRES HKO_LAT HKO_LON HKO_CAT HKO_WIND HKO_PRES NEWDELHI_LAT NEWDELHI_LON NEWDELHI_GRADE NEWDELHI_WIND NEWDELHI_PRES NEWDELHI_CI NEWDELHI_DP NEWDELHI_POCI REUNION_LAT REUNION_LON REUNION_TYPE REUNION_WIND REUNION_PRES REUNION_TNUM REUNION_CI REUNION_RMW REUNION_R34_NE REUNION_R34_SE REUNION_R34_SW REUNION_R34_NW REUNION_R50_NE REUNION_R50_SE REUNION_R50_SW REUNION_R50_NW REUNION_R64_NE REUNION_R64_SE REUNION_R64_SW REUNION_R64_NW BOM_LAT BOM_LON BOM_TYPE BOM_WIND BOM_PRES BOM_TNUM BOM_CI BOM_RMW BOM_R34_NE BOM_R34_SE BOM_R34_SW BOM_R34_NW BOM_R50_NE BOM_R50_SE BOM_R50_SW BOM_R50_NW BOM_R64_NE BOM_R64_SE BOM_R64_SW BOM_R64_NW BOM_ROCI BOM_POCI BOM_EYE BOM_POS_METHOD BOM_PRES_METHOD NADI_LAT NADI_LON NADI_CAT NADI_WIND NADI_PRES WELLINGTON_LAT WELLINGTON_LON WELLINGTON_WIND WELLINGTON_PRES DS824_LAT DS824_LON DS824_STAGE DS824_WIND DS824_PRES TD9636_LAT TD9636_LON TD9636_STAGE TD9636_WIND TD9636_PRES TD9635_LAT TD9635_LON TD9635_WIND TD9635_PRES TD9635_ROCI NEUMANN_LAT NEUMANN_LON NEUMANN_CLASS NEUMANN_WIND NEUMANN_PRES MLC_LAT MLC_LON MLC_CLASS MLC_WIND MLC_PRES USA_GUST BOM_GUST BOM_GUST_PER REUNION_GUST REUNION_GUST_PER USA_SEAHGT USA_SEARAD_NE USA_SEARAD_SE USA_SEARAD_SW USA_SEARAD_NW STORM_SPEED STORM_DIR
1918292N11145 1918 65 WP MM NOT_NAMED 1918-10-18 22:00:00 NR 10.7000 144.700 main 1449 1449 __________O___ -1 10.7000 144.700 7 13 276
1918292N11145 1918 65 WP MM NOT_NAMED 1918-10-19 00:00:00 NR 10.7476 144.254 main 1456 1469 __________P___ -1 10.7476 144.254 7 13 276
1918292N11145 1918 65 WP MM NOT_NAMED 1918-10-19 03:00:00 NR 10.8193 143.584 main 1483 1485 __________P___ -1 10.8193 143.584 7 13 276
1918292N11145 1918 65 WP MM NOT_NAMED 1918-10-19 06:00:00 NR 10.8934 142.910 main 1494 1475 __________P___ -1 10.8934 142.910 7 13 277
1918292N11145 1918 65 WP MM NOT_NAMED 1918-10-19 09:00:00 NR 10.9723 142.229 main 1479 1473 __________P___ -1 10.9723 142.229 7 14 277
1918292N11145 1918 65 WP MM NOT_NAMED 1918-10-19 10:00:00 NR 11.0000 142.000 main 1473 1461 __________O___ -1 11.0000 142.000 7 14 277
1918292N11145 1918 65 WP MM NOT_NAMED 1918-10-19 12:00:00 NR 11.0580 141.539 main 1469 1443 __________P___ -1 11.0580 141.539 7 14 278
1918292N11145 1918 65 WP MM NOT_NAMED 1918-10-19 15:00:00 NR 11.1516 140.841 main 1449 1426 __________P___ -1 11.1516 140.841 7 14 278
1918292N11145 1918 65 WP MM NOT_NAMED 1918-10-19 18:00:00 NR 11.2528 140.139 main 1433 1412 __________P___ -1 11.2528 140.139 7 14 279
1918292N11145 1918 65 WP MM NOT_NAMED 1918-10-19 21:00:00 NR 11.3619 139.434 main 1419 1412 __________P___ -1 11.3619 139.434 7 14 279
1918292N11145 1918 65 WP MM NOT_NAMED 1918-10-19 22:00:00 NR 11.4000 139.200 main 1412 1391 __________O___ -1 11.4000 139.200 7 14 280
1918292N11145 1918 65 WP MM NOT_NAMED 1918-10-20 00:00:00 NR 11.4800 138.728 main 1391 1319 __________P___ -1 11.4800 138.728 7 14 280
1918292N11145 1918 65 WP MM NOT_NAMED 1918-10-20 03:00:00 NR 11.6065 138.020 main 1319 1246 __________P___ -1 11.6065 138.020 7 14 280
1918292N11145 1918 65 WP MM NOT_NAMED 1918-10-20 06:00:00 NR 11.7354 137.318 main 1246 1177 __________P___ -1 11.7354 137.318 7 14 281
1918292N11145 1918 65 WP MM NOT_NAMED 1918-10-20 09:00:00 NR 11.8603 136.627 main 1177 1155 __________P___ -1 11.8603 136.627 7 14 280
1918292N11145 1918 65 WP MM NOT_NAMED 1918-10-20 10:00:00 NR 11.9000 136.400 main 1155 1116 __________O___ -1 11.9000 136.400 7 13 279
1918292N11145 1918 65 WP MM NOT_NAMED 1918-10-20 12:00:00 NR 11.9693 135.952 main 1116 1042 __________P___ -1 11.9693 135.952 7 13 279
1918292N11145 1918 65 WP MM NOT_NAMED 1918-10-20 15:00:00 NR 12.0673 135.294 main 1042 968 __________P___ -1 12.0673 135.294 7 13 279
1918292N11145 1918 65 WP MM NOT_NAMED 1918-10-20 18:00:00 NR 12.1636 134.648 main 968 905 __________P___ -1 12.1636 134.648 7 13 279
1918292N11145 1918 65 WP MM NOT_NAMED 1918-10-20 21:00:00 NR 12.2643 134.011 main 905 883 __________P___ -1 12.2643 134.011 7 13 279
1918292N11145 1918 65 WP MM NOT_NAMED 1918-10-20 22:00:00 NR 12.3000 133.800 main 883 842 __________O___ -1 12.3000 133.800 7 13 279
1918292N11145 1918 65 WP MM NOT_NAMED 1918-10-21 00:00:00 NR 12.3668 133.377 main 842 770 __________P___ -1 12.3668 133.377 7 13 280
1918292N11145 1918 65 WP MM NOT_NAMED 1918-10-21 03:00:00 NR 12.4732 132.750 main 770 709 __________P___ -1 12.4732 132.750 7 12 281
1918292N11145 1918 65 WP MM NOT_NAMED 1918-10-21 06:00:00 NR 12.5957 132.127 main 709 649 __________P___ -1 12.5957 132.127 7 12 283
1918292N11145 1918 65 WP MM NOT_NAMED 1918-10-21 09:00:00 NR 12.7435 131.507 main 649 631 __________P___ -1 12.7435 131.507 7 13 284
1918292N11145 1918 65 WP MM NOT_NAMED 1918-10-21 10:00:00 NR 12.8000 131.300 main 631 591 __________O___ -1 12.8000 131.300 7 13 286
1918292N11145 1918 65 WP MM NOT_NAMED 1918-10-21 12:00:00 NR 12.9218 130.873 main 591 520 __________P___ -1 12.9218 130.873 7 13 288
1918292N11145 1918 65 WP MM NOT_NAMED 1918-10-21 15:00:00 NR 13.1297 130.232 main 520 461 __________P___ -1 13.1297 130.232 7 13 290
1918292N11145 1918 65 WP MM NOT_NAMED 1918-10-21 18:00:00 NR 13.3623 129.602 main 464 410 __________P___ -1 13.3623 129.602 7 13 292
1918292N11145 1918 65 WP MM NOT_NAMED 1918-10-21 21:00:00 NR 13.6133 128.995 main 410 395 __________P___ -1 13.6133 128.995 7 13 293
1918292N11145 1918 65 WP MM NOT_NAMED 1918-10-21 22:00:00 NR 13.7000 128.800 main 395 367 __________O___ -1 13.7000 128.800 2 12 295
1918292N11145 1918 65 WP MM NOT_NAMED 1918-10-22 00:00:00 NR 13.8741 128.424 main 367 335 __________P___ -1 13.8741 128.424 2 12 297
1918292N11145 1918 65 WP MM NOT_NAMED 1918-10-22 03:00:00 NR 14.1482 127.886 main 335 319 __________P___ -1 14.1482 127.886 2 12 299
1918292N11145 1918 65 WP MM NOT_NAMED 1918-10-22 06:00:00 NR 14.4297 127.370 main 319 283 __________P___ -1 14.4297 127.370 2 11 300
1918292N11145 1918 65 WP MM NOT_NAMED 1918-10-22 09:00:00 NR 14.7090 126.867 main 283 267 __________P___ -1 14.7090 126.867 2 11 300
1918292N11145 1918 65 WP MM NOT_NAMED 1918-10-22 10:00:00 NR 14.8000 126.700 main 267 242 __________O___ -1 14.8000 126.700 2 11 297
1918292N11145 1918 65 WP MM NOT_NAMED 1918-10-22 12:00:00 NR 14.9483 126.373 main 242 210 __________P___ -1 14.9483 126.373 2 10 295
1918292N11145 1918 65 WP MM NOT_NAMED 1918-10-22 15:00:00 NR 15.1641 125.890 main 217 194 __________P___ -1 15.1641 125.890 2 10 296
1918292N11145 1918 65 WP MM NOT_NAMED 1918-10-22 18:00:00 NR 15.4000 125.399 main 196 188 __________P___ -1 15.4000 125.399 2 11 298
1918292N11145 1918 65 WP MM NOT_NAMED 1918-10-22 21:00:00 NR 15.6874 124.881 main 200 197 __________P___ -1 15.6874 124.881 2 12 301
1918292N11145 1918 65 WP MM NOT_NAMED 1918-10-22 22:00:00 NR 15.8000 124.700 main 206 204 __________O___ -1 15.8000 124.700 2 13 304
1918292N11145 1918 65 WP MM NOT_NAMED 1918-10-23 00:00:00 NR 16.0576 124.302 main 211 135 __________P___ -1 16.0576 124.302 2 15 305
1918292N11145 1918 65 WP MM NOT_NAMED 1918-10-23 03:00:00 NR 16.5006 123.672 main 135 53 __________P___ -1 16.5006 123.672 2 15 308
1918292N11145 1918 65 WP MM NOT_NAMED 1918-10-23 06:00:00 NR 16.9945 123.029 main 53 15 __________P___ -1 16.9945 123.029 2 16 310
1918292N11145 1918 65 WP MM NOT_NAMED 1918-10-23 09:00:00 NR 17.5206 122.401 main 22 10 __________P___ -1 17.5206 122.401 2 16 312
1918292N11145 1918 65 WP MM NOT_NAMED 1918-10-23 10:00:00 NR 17.7000 122.200 main 10 0 __________O___ -1 17.7000 122.200 2 16 314
1918292N11145 1918 65 WP MM NOT_NAMED 1918-10-23 12:00:00 NR 18.0615 121.815 main 0 0 __________P___ -1 18.0615 121.815 2 15 316
1918292N11145 1918 65 WP MM NOT_NAMED 1918-10-23 15:00:00 NR 18.6091 121.273 main 11 11 __________P___ -1 18.6091 121.273 2 15 318
1918292N11145 1918 65 WP MM NOT_NAMED 1918-10-23 18:00:00 NR 19.1611 120.761 main 67 67 __________P___ -1 19.1611 120.761 2 15 319
1918292N11145 1918 65 WP MM NOT_NAMED 1918-10-23 21:00:00 NR 19.7153 120.264 main 133 138 __________P___ -1 19.7153 120.264 2 15 320
1918292N11145 1918 65 WP MM NOT_NAMED 1918-10-23 22:00:00 NR 19.9000 120.100 main 162 __________O___ -1 19.9000 120.100 7 15 320

Digital Typhoon Data and Search

About IBTrACS Database

This database is a web-friendly format of International Best Track Archive for Climate Stewardship (IBTrACS), a global best track data archive curated by NOAA dating back to 1842.

Updated: 2021-12-03